sensor_id;sensor_type;location;lat;lon;timestamp;temperature;humidity
17483;DHT22;8858;52.308;20.994;2022-08-16T00:07:21;23.80;99.90
17483;DHT22;8858;52.308;20.994;2022-08-16T00:09:56;23.70;99.90
17483;DHT22;8858;52.308;20.994;2022-08-16T00:12:28;23.60;99.90
17483;DHT22;8858;52.308;20.994;2022-08-16T00:15:06;23.60;99.90
17483;DHT22;8858;52.308;20.994;2022-08-16T00:17:37;23.60;99.90
17483;DHT22;8858;52.308;20.994;2022-08-16T00:20:24;23.60;99.90
17483;DHT22;8858;52.308;20.994;2022-08-16T00:22:56;23.50;99.90
17483;DHT22;8858;52.308;20.994;2022-08-16T00:25:27;23.50;99.90
17483;DHT22;8858;52.308;20.994;2022-08-16T00:28:26;23.50;99.90
17483;DHT22;8858;52.308;20.994;2022-08-16T00:31:44;23.50;99.90
17483;DHT22;8858;52.308;20.994;2022-08-16T00:38:15;23.40;99.90
17483;DHT22;8858;52.308;20.994;2022-08-16T00:41:35;23.40;99.90
17483;DHT22;8858;52.308;20.994;2022-08-16T00:44:38;23.40;99.90
17483;DHT22;8858;52.308;20.994;2022-08-16T00:49:08;23.30;99.90
17483;DHT22;8858;52.308;20.994;2022-08-16T00:52:49;23.30;99.90
17483;DHT22;8858;52.308;20.994;2022-08-16T00:56:33;23.30;99.90
17483;DHT22;8858;52.308;20.994;2022-08-16T00:59:29;23.20;99.90
17483;DHT22;8858;52.308;20.994;2022-08-16T01:02:26;23.20;99.90
17483;DHT22;8858;52.308;20.994;2022-08-16T01:05:43;23.20;99.90
17483;DHT22;8858;52.308;20.994;2022-08-16T01:09:16;23.10;99.90
17483;DHT22;8858;52.308;20.994;2022-08-16T01:12:58;23.10;99.90
17483;DHT22;8858;52.308;20.994;2022-08-16T01:16:45;23.10;99.90
17483;DHT22;8858;52.308;20.994;2022-08-16T01:19:46;23.00;99.90
17483;DHT22;8858;52.308;20.994;2022-08-16T01:22:29;23.00;99.90
17483;DHT22;8858;52.308;20.994;2022-08-16T01:25:41;23.00;99.90
17483;DHT22;8858;52.308;20.994;2022-08-16T01:28:34;23.00;99.90
17483;DHT22;8858;52.308;20.994;2022-08-16T01:31:12;23.00;99.90
17483;DHT22;8858;52.308;20.994;2022-08-16T01:33:43;23.00;99.90
17483;DHT22;8858;52.308;20.994;2022-08-16T01:36:17;23.00;99.90
17483;DHT22;8858;52.308;20.994;2022-08-16T01:38:52;23.00;99.90
17483;DHT22;8858;52.308;20.994;2022-08-16T01:41:32;22.90;99.90
17483;DHT22;8858;52.308;20.994;2022-08-16T01:44:24;22.90;99.90
17483;DHT22;8858;52.308;20.994;2022-08-16T01:47:05;22.90;99.90
17483;DHT22;8858;52.308;20.994;2022-08-16T01:49:38;22.90;99.90
17483;DHT22;8858;52.308;20.994;2022-08-16T01:52:27;22.90;99.90
17483;DHT22;8858;52.308;20.994;2022-08-16T01:55:16;22.90;99.90
17483;DHT22;8858;52.308;20.994;2022-08-16T01:57:50;22.80;99.90
17483;DHT22;8858;52.308;20.994;2022-08-16T02:00:24;22.80;99.90
17483;DHT22;8858;52.308;20.994;2022-08-16T02:02:58;22.80;99.90
17483;DHT22;8858;52.308;20.994;2022-08-16T02:05:28;22.70;99.90
17483;DHT22;8858;52.308;20.994;2022-08-16T02:08:09;22.80;99.90
17483;DHT22;8858;52.308;20.994;2022-08-16T02:11:06;22.80;99.90
17483;DHT22;8858;52.308;20.994;2022-08-16T02:13:38;22.80;99.90
17483;DHT22;8858;52.308;20.994;2022-08-16T02:16:12;22.80;99.90
17483;DHT22;8858;52.308;20.994;2022-08-16T02:18:48;22.80;99.90
17483;DHT22;8858;52.308;20.994;2022-08-16T02:21:18;22.80;99.90
17483;DHT22;8858;52.308;20.994;2022-08-16T02:23:58;22.80;99.90
17483;DHT22;8858;52.308;20.994;2022-08-16T02:26:29;22.80;99.90
17483;DHT22;8858;52.308;20.994;2022-08-16T02:29:02;22.70;99.90
17483;DHT22;8858;52.308;20.994;2022-08-16T02:31:39;22.80;99.90
17483;DHT22;8858;52.308;20.994;2022-08-16T02:34:28;22.80;99.90
17483;DHT22;8858;52.308;20.994;2022-08-16T02:37:10;22.80;99.90
17483;DHT22;8858;52.308;20.994;2022-08-16T02:39:46;22.80;99.90
17483;DHT22;8858;52.308;20.994;2022-08-16T02:42:21;22.80;99.90
17483;DHT22;8858;52.308;20.994;2022-08-16T02:44:54;22.70;99.90
17483;DHT22;8858;52.308;20.994;2022-08-16T02:47:25;22.70;99.90
17483;DHT22;8858;52.308;20.994;2022-08-16T02:49:57;22.80;99.90
17483;DHT22;8858;52.308;20.994;2022-08-16T02:52:46;22.70;99.90
17483;DHT22;8858;52.308;20.994;2022-08-16T02:55:16;22.70;99.90
17483;DHT22;8858;52.308;20.994;2022-08-16T02:58:05;22.70;99.90
17483;DHT22;8858;52.308;20.994;2022-08-16T03:00:38;22.70;99.90
17483;DHT22;8858;52.308;20.994;2022-08-16T03:03:11;22.70;99.90
17483;DHT22;8858;52.308;20.994;2022-08-16T03:05:46;22.60;99.90
17483;DHT22;8858;52.308;20.994;2022-08-16T03:08:20;22.60;99.90
17483;DHT22;8858;52.308;20.994;2022-08-16T03:11:14;22.70;99.90
17483;DHT22;8858;52.308;20.994;2022-08-16T03:13:52;22.60;99.90
17483;DHT22;8858;52.308;20.994;2022-08-16T03:16:27;22.60;99.90
17483;DHT22;8858;52.308;20.994;2022-08-16T03:19:09;22.60;99.90
17483;DHT22;8858;52.308;20.994;2022-08-16T03:21:38;22.60;99.90
17483;DHT22;8858;52.308;20.994;2022-08-16T03:24:08;22.60;99.90
17483;DHT22;8858;52.308;20.994;2022-08-16T03:26:57;22.50;99.90
17483;DHT22;8858;52.308;20.994;2022-08-16T03:29:32;22.60;99.90
17483;DHT22;8858;52.308;20.994;2022-08-16T03:32:05;22.50;99.90
17483;DHT22;8858;52.308;20.994;2022-08-16T03:34:33;22.50;99.90
17483;DHT22;8858;52.308;20.994;2022-08-16T03:37:03;22.50;99.90
17483;DHT22;8858;52.308;20.994;2022-08-16T03:39:33;22.50;99.90
17483;DHT22;8858;52.308;20.994;2022-08-16T03:42:09;22.40;99.90
17483;DHT22;8858;52.308;20.994;2022-08-16T03:44:48;22.50;99.90
17483;DHT22;8858;52.308;20.994;2022-08-16T03:47:30;22.40;99.90
17483;DHT22;8858;52.308;20.994;2022-08-16T03:50:03;22.40;99.90
17483;DHT22;8858;52.308;20.994;2022-08-16T03:52:52;22.40;99.90
17483;DHT22;8858;52.308;20.994;2022-08-16T03:55:28;22.40;99.90
17483;DHT22;8858;52.308;20.994;2022-08-16T03:58:11;22.40;99.90
17483;DHT22;8858;52.308;20.994;2022-08-16T04:00:40;22.40;99.90
17483;DHT22;8858;52.308;20.994;2022-08-16T04:03:15;22.40;99.90
17483;DHT22;8858;52.308;20.994;2022-08-16T04:05:46;22.40;99.90
17483;DHT22;8858;52.308;20.994;2022-08-16T04:08:21;22.40;99.90
17483;DHT22;8858;52.308;20.994;2022-08-16T04:10:57;22.40;99.90
17483;DHT22;8858;52.308;20.994;2022-08-16T04:13:27;22.40;99.90
17483;DHT22;8858;52.308;20.994;2022-08-16T04:16:19;22.40;99.90
17483;DHT22;8858;52.308;20.994;2022-08-16T04:19:01;22.40;99.90
17483;DHT22;8858;52.308;20.994;2022-08-16T04:21:34;22.40;99.90
17483;DHT22;8858;52.308;20.994;2022-08-16T04:24:21;22.40;99.90
17483;DHT22;8858;52.308;20.994;2022-08-16T04:26:55;22.40;99.90
17483;DHT22;8858;52.308;20.994;2022-08-16T04:29:25;22.50;99.90
17483;DHT22;8858;52.308;20.994;2022-08-16T04:32:13;22.40;99.90
17483;DHT22;8858;52.308;20.994;2022-08-16T04:34:51;22.40;99.90
17483;DHT22;8858;52.308;20.994;2022-08-16T04:37:21;22.50;99.90
17483;DHT22;8858;52.308;20.994;2022-08-16T04:39:57;22.50;99.90
17483;DHT22;8858;52.308;20.994;2022-08-16T04:42:31;22.50;99.90
17483;DHT22;8858;52.308;20.994;2022-08-16T04:45:07;22.50;99.90
17483;DHT22;8858;52.308;20.994;2022-08-16T04:47:37;22.50;99.90
17483;DHT22;8858;52.308;20.994;2022-08-16T04:50:19;22.50;99.90
17483;DHT22;8858;52.308;20.994;2022-08-16T04:52:58;22.50;99.90
17483;DHT22;8858;52.308;20.994;2022-08-16T04:55:31;22.50;99.90
17483;DHT22;8858;52.308;20.994;2022-08-16T04:58:05;22.50;99.90
17483;DHT22;8858;52.308;20.994;2022-08-16T05:00:57;22.50;99.90
17483;DHT22;8858;52.308;20.994;2022-08-16T05:03:29;22.50;99.90
17483;DHT22;8858;52.308;20.994;2022-08-16T05:06:00;22.50;99.90
17483;DHT22;8858;52.308;20.994;2022-08-16T05:08:33;22.60;99.90
17483;DHT22;8858;52.308;20.994;2022-08-16T05:11:14;22.60;99.90
17483;DHT22;8858;52.308;20.994;2022-08-16T05:13:46;22.60;99.90
17483;DHT22;8858;52.308;20.994;2022-08-16T05:16:22;22.60;99.90
17483;DHT22;8858;52.308;20.994;2022-08-16T05:19:00;22.60;99.90
17483;DHT22;8858;52.308;20.994;2022-08-16T05:21:50;22.70;99.90
17483;DHT22;8858;52.308;20.994;2022-08-16T05:24:19;22.70;99.90
17483;DHT22;8858;52.308;20.994;2022-08-16T05:26:54;22.80;99.90
17483;DHT22;8858;52.308;20.994;2022-08-16T05:29:26;22.80;99.90
17483;DHT22;8858;52.308;20.994;2022-08-16T05:32:18;22.80;99.90
17483;DHT22;8858;52.308;20.994;2022-08-16T05:35:03;22.90;99.90
17483;DHT22;8858;52.308;20.994;2022-08-16T05:38:00;23.00;99.90
17483;DHT22;8858;52.308;20.994;2022-08-16T05:40:50;23.00;99.90
17483;DHT22;8858;52.308;20.994;2022-08-16T05:43:28;23.10;99.90
17483;DHT22;8858;52.308;20.994;2022-08-16T05:46:14;23.10;99.90
17483;DHT22;8858;52.308;20.994;2022-08-16T05:49:12;23.20;99.90
17483;DHT22;8858;52.308;20.994;2022-08-16T05:51:55;23.30;99.90
17483;DHT22;8858;52.308;20.994;2022-08-16T05:54:28;23.30;99.90
17483;DHT22;8858;52.308;20.994;2022-08-16T05:57:01;23.40;99.90
17483;DHT22;8858;52.308;20.994;2022-08-16T05:59:31;23.40;99.90
17483;DHT22;8858;52.308;20.994;2022-08-16T06:02:02;23.50;99.90
17483;DHT22;8858;52.308;20.994;2022-08-16T06:04:34;23.50;99.90
17483;DHT22;8858;52.308;20.994;2022-08-16T06:07:12;23.50;99.90
17483;DHT22;8858;52.308;20.994;2022-08-16T06:10:10;23.60;99.90
17483;DHT22;8858;52.308;20.994;2022-08-16T06:12:40;23.50;99.90
17483;DHT22;8858;52.308;20.994;2022-08-16T06:15:13;23.60;99.90
17483;DHT22;8858;52.308;20.994;2022-08-16T06:17:44;23.60;99.90
17483;DHT22;8858;52.308;20.994;2022-08-16T06:20:23;23.70;99.90
17483;DHT22;8858;52.308;20.994;2022-08-16T06:23:14;23.60;99.90
17483;DHT22;8858;52.308;20.994;2022-08-16T06:26:07;23.60;99.90
17483;DHT22;8858;52.308;20.994;2022-08-16T06:28:39;23.60;99.90
17483;DHT22;8858;52.308;20.994;2022-08-16T06:31:21;23.60;99.90
17483;DHT22;8858;52.308;20.994;2022-08-16T06:33:57;23.60;99.90
17483;DHT22;8858;52.308;20.994;2022-08-16T06:36:30;23.60;99.90
17483;DHT22;8858;52.308;20.994;2022-08-16T06:39:13;23.60;99.90
17483;DHT22;8858;52.308;20.994;2022-08-16T06:41:53;23.70;99.90
17483;DHT22;8858;52.308;20.994;2022-08-16T06:44:54;23.70;99.90
17483;DHT22;8858;52.308;20.994;2022-08-16T06:47:35;23.80;99.90
17483;DHT22;8858;52.308;20.994;2022-08-16T06:50:24;23.80;99.90
17483;DHT22;8858;52.308;20.994;2022-08-16T06:52:58;23.90;99.90
17483;DHT22;8858;52.308;20.994;2022-08-16T06:55:55;23.90;99.90
17483;DHT22;8858;52.308;20.994;2022-08-16T06:58:36;23.90;99.90
17483;DHT22;8858;52.308;20.994;2022-08-16T07:01:10;24.00;99.90
17483;DHT22;8858;52.308;20.994;2022-08-16T07:03:48;24.10;99.90
17483;DHT22;8858;52.308;20.994;2022-08-16T07:06:31;24.10;99.90
17483;DHT22;8858;52.308;20.994;2022-08-16T07:09:09;24.20;99.90
17483;DHT22;8858;52.308;20.994;2022-08-16T07:11:42;24.20;99.90
17483;DHT22;8858;52.308;20.994;2022-08-16T07:14:28;24.30;99.90
17483;DHT22;8858;52.308;20.994;2022-08-16T07:16:59;24.40;99.90
17483;DHT22;8858;52.308;20.994;2022-08-16T07:19:37;24.50;99.90
17483;DHT22;8858;52.308;20.994;2022-08-16T07:22:33;24.50;99.90
17483;DHT22;8858;52.308;20.994;2022-08-16T07:25:14;24.60;99.90
17483;DHT22;8858;52.308;20.994;2022-08-16T07:27:44;24.70;99.90
17483;DHT22;8858;52.308;20.994;2022-08-16T07:30:18;24.90;99.90
17483;DHT22;8858;52.308;20.994;2022-08-16T07:33:09;25.00;99.90
17483;DHT22;8858;52.308;20.994;2022-08-16T07:35:42;25.10;99.90
17483;DHT22;8858;52.308;20.994;2022-08-16T07:38:18;25.20;99.90
17483;DHT22;8858;52.308;20.994;2022-08-16T07:41:02;25.30;99.90
17483;DHT22;8858;52.308;20.994;2022-08-16T07:43:38;25.30;99.90
17483;DHT22;8858;52.308;20.994;2022-08-16T07:46:10;25.30;99.90
17483;DHT22;8858;52.308;20.994;2022-08-16T07:49:05;25.40;99.90
17483;DHT22;8858;52.308;20.994;2022-08-16T07:51:39;25.40;99.90
17483;DHT22;8858;52.308;20.994;2022-08-16T07:54:13;25.50;99.90
17483;DHT22;8858;52.308;20.994;2022-08-16T07:56:59;25.50;99.90
17483;DHT22;8858;52.308;20.994;2022-08-16T07:59:29;25.50;99.90
17483;DHT22;8858;52.308;20.994;2022-08-16T08:02:17;25.60;99.90
17483;DHT22;8858;52.308;20.994;2022-08-16T08:04:55;25.60;99.90
17483;DHT22;8858;52.308;20.994;2022-08-16T08:07:25;25.60;99.90
17483;DHT22;8858;52.308;20.994;2022-08-16T08:10:00;25.60;99.90
17483;DHT22;8858;52.308;20.994;2022-08-16T08:12:38;25.60;99.90
17483;DHT22;8858;52.308;20.994;2022-08-16T08:15:12;25.60;99.90
17483;DHT22;8858;52.308;20.994;2022-08-16T08:17:52;25.70;99.90
17483;DHT22;8858;52.308;20.994;2022-08-16T08:20:31;25.70;99.90
17483;DHT22;8858;52.308;20.994;2022-08-16T08:23:05;25.80;99.90
17483;DHT22;8858;52.308;20.994;2022-08-16T08:25:38;25.80;99.90
17483;DHT22;8858;52.308;20.994;2022-08-16T08:28:26;25.90;99.90
17483;DHT22;8858;52.308;20.994;2022-08-16T08:31:06;26.00;99.90
17483;DHT22;8858;52.308;20.994;2022-08-16T08:33:38;26.10;99.90
17483;DHT22;8858;52.308;20.994;2022-08-16T08:36:19;26.10;99.90
17483;DHT22;8858;52.308;20.994;2022-08-16T08:39:20;26.20;99.90
17483;DHT22;8858;52.308;20.994;2022-08-16T08:41:52;26.30;99.90
17483;DHT22;8858;52.308;20.994;2022-08-16T08:44:22;26.40;99.90
17483;DHT22;8858;52.308;20.994;2022-08-16T08:47:05;26.40;99.90
17483;DHT22;8858;52.308;20.994;2022-08-16T08:49:39;26.50;99.90
17483;DHT22;8858;52.308;20.994;2022-08-16T08:52:25;26.60;99.90
17483;DHT22;8858;52.308;20.994;2022-08-16T08:55:08;26.60;99.90
17483;DHT22;8858;52.308;20.994;2022-08-16T08:57:42;26.60;99.90
17483;DHT22;8858;52.308;20.994;2022-08-16T09:00:41;26.60;99.90
17483;DHT22;8858;52.308;20.994;2022-08-16T09:03:19;26.60;99.90
17483;DHT22;8858;52.308;20.994;2022-08-16T09:05:50;26.70;99.90
17483;DHT22;8858;52.308;20.994;2022-08-16T09:08:22;26.60;99.90
17483;DHT22;8858;52.308;20.994;2022-08-16T09:10:59;26.60;99.90
17483;DHT22;8858;52.308;20.994;2022-08-16T09:13:31;26.70;99.90
17483;DHT22;8858;52.308;20.994;2022-08-16T09:16:01;26.70;99.90
17483;DHT22;8858;52.308;20.994;2022-08-16T09:18:40;26.70;99.90
17483;DHT22;8858;52.308;20.994;2022-08-16T09:21:10;26.70;99.90
17483;DHT22;8858;52.308;20.994;2022-08-16T09:23:47;26.80;99.90
17483;DHT22;8858;52.308;20.994;2022-08-16T09:26:18;26.70;99.90
17483;DHT22;8858;52.308;20.994;2022-08-16T09:29:07;26.70;99.90
17483;DHT22;8858;52.308;20.994;2022-08-16T09:31:45;26.70;99.90
17483;DHT22;8858;52.308;20.994;2022-08-16T09:34:19;26.70;99.90
17483;DHT22;8858;52.308;20.994;2022-08-16T09:36:50;26.60;99.90
17483;DHT22;8858;52.308;20.994;2022-08-16T09:39:20;26.60;99.90
17483;DHT22;8858;52.308;20.994;2022-08-16T09:41:55;26.60;99.90
17483;DHT22;8858;52.308;20.994;2022-08-16T09:44:26;26.50;99.90
17483;DHT22;8858;52.308;20.994;2022-08-16T09:47:15;26.60;99.90
17483;DHT22;8858;52.308;20.994;2022-08-16T09:49:49;26.60;99.90
17483;DHT22;8858;52.308;20.994;2022-08-16T09:52:18;26.50;99.90
17483;DHT22;8858;52.308;20.994;2022-08-16T09:54:48;26.50;99.90
17483;DHT22;8858;52.308;20.994;2022-08-16T09:57:16;26.50;99.90
17483;DHT22;8858;52.308;20.994;2022-08-16T09:59:48;26.50;99.90
17483;DHT22;8858;52.308;20.994;2022-08-16T10:02:25;26.50;99.90
17483;DHT22;8858;52.308;20.994;2022-08-16T10:04:54;26.50;99.90
17483;DHT22;8858;52.308;20.994;2022-08-16T10:07:27;26.50;99.90
17483;DHT22;8858;52.308;20.994;2022-08-16T10:10:10;26.50;99.90
17483;DHT22;8858;52.308;20.994;2022-08-16T10:12:56;26.60;99.90
17483;DHT22;8858;52.308;20.994;2022-08-16T10:15:50;26.70;99.90
17483;DHT22;8858;52.308;20.994;2022-08-16T10:18:21;26.80;99.90
17483;DHT22;8858;52.308;20.994;2022-08-16T10:21:15;26.80;99.90
17483;DHT22;8858;52.308;20.994;2022-08-16T10:23:45;26.90;99.90
17483;DHT22;8858;52.308;20.994;2022-08-16T10:26:14;26.90;99.90
17483;DHT22;8858;52.308;20.994;2022-08-16T10:29:04;26.90;99.90
17483;DHT22;8858;52.308;20.994;2022-08-16T10:31:32;27.00;99.90
17483;DHT22;8858;52.308;20.994;2022-08-16T10:34:12;27.00;99.90
17483;DHT22;8858;52.308;20.994;2022-08-16T10:37:02;27.10;99.90
17483;DHT22;8858;52.308;20.994;2022-08-16T10:39:33;27.20;99.90
17483;DHT22;8858;52.308;20.994;2022-08-16T10:42:10;27.20;99.90
17483;DHT22;8858;52.308;20.994;2022-08-16T10:44:40;27.20;99.90
17483;DHT22;8858;52.308;20.994;2022-08-16T10:47:22;27.20;99.90
17483;DHT22;8858;52.308;20.994;2022-08-16T10:49:54;27.20;99.90
17483;DHT22;8858;52.308;20.994;2022-08-16T10:52:25;27.30;99.90
17483;DHT22;8858;52.308;20.994;2022-08-16T10:54:59;27.30;99.90
17483;DHT22;8858;52.308;20.994;2022-08-16T10:57:48;27.30;99.90
17483;DHT22;8858;52.308;20.994;2022-08-16T11:00:17;27.20;99.90
17483;DHT22;8858;52.308;20.994;2022-08-16T11:02:50;27.20;99.90
17483;DHT22;8858;52.308;20.994;2022-08-16T11:05:27;27.20;99.90
17483;DHT22;8858;52.308;20.994;2022-08-16T11:08:18;27.20;99.90
17483;DHT22;8858;52.308;20.994;2022-08-16T11:11:04;27.30;99.90
17483;DHT22;8858;52.308;20.994;2022-08-16T11:13:47;27.30;99.90
17483;DHT22;8858;52.308;20.994;2022-08-16T11:16:32;27.30;99.90
17483;DHT22;8858;52.308;20.994;2022-08-16T11:19:20;27.30;99.90
17483;DHT22;8858;52.308;20.994;2022-08-16T11:21:54;27.40;99.90
17483;DHT22;8858;52.308;20.994;2022-08-16T11:24:46;27.40;99.90
17483;DHT22;8858;52.308;20.994;2022-08-16T11:27:40;27.40;99.90
17483;DHT22;8858;52.308;20.994;2022-08-16T11:30:13;27.40;99.90
17483;DHT22;8858;52.308;20.994;2022-08-16T11:32:46;27.40;99.90
17483;DHT22;8858;52.308;20.994;2022-08-16T11:35:17;27.40;99.90
17483;DHT22;8858;52.308;20.994;2022-08-16T11:38:11;27.40;99.90
17483;DHT22;8858;52.308;20.994;2022-08-16T11:41:01;27.30;99.90
17483;DHT22;8858;52.308;20.994;2022-08-16T11:43:37;27.40;99.90
17483;DHT22;8858;52.308;20.994;2022-08-16T11:46:09;27.40;99.90
17483;DHT22;8858;52.308;20.994;2022-08-16T11:48:58;27.30;99.90
17483;DHT22;8858;52.308;20.994;2022-08-16T11:51:27;27.30;99.90
17483;DHT22;8858;52.308;20.994;2022-08-16T11:53:55;27.20;99.90
17483;DHT22;8858;52.308;20.994;2022-08-16T11:56:24;27.20;99.90
17483;DHT22;8858;52.308;20.994;2022-08-16T11:59:16;27.20;99.90
17483;DHT22;8858;52.308;20.994;2022-08-16T12:01:50;27.20;99.90
17483;DHT22;8858;52.308;20.994;2022-08-16T12:04:58;27.20;99.90
17483;DHT22;8858;52.308;20.994;2022-08-16T12:07:28;27.30;99.90
17483;DHT22;8858;52.308;20.994;2022-08-16T12:09:59;27.40;99.90
17483;DHT22;8858;52.308;20.994;2022-08-16T12:12:29;27.50;99.90
17483;DHT22;8858;52.308;20.994;2022-08-16T12:15:01;27.60;99.90
17483;DHT22;8858;52.308;20.994;2022-08-16T12:17:56;27.70;99.90
17483;DHT22;8858;52.308;20.994;2022-08-16T12:20:35;27.80;99.90
17483;DHT22;8858;52.308;20.994;2022-08-16T12:23:04;27.90;99.90
17483;DHT22;8858;52.308;20.994;2022-08-16T12:25:34;28.10;99.90
17483;DHT22;8858;52.308;20.994;2022-08-16T12:28:05;28.10;99.90
17483;DHT22;8858;52.308;20.994;2022-08-16T12:30:39;28.20;99.90
17483;DHT22;8858;52.308;20.994;2022-08-16T12:33:11;28.30;99.90
17483;DHT22;8858;52.308;20.994;2022-08-16T12:35:51;28.40;99.90
17483;DHT22;8858;52.308;20.994;2022-08-16T12:38:20;28.50;99.90
17483;DHT22;8858;52.308;20.994;2022-08-16T12:41:09;28.50;99.90
17483;DHT22;8858;52.308;20.994;2022-08-16T12:43:42;28.50;99.90
17483;DHT22;8858;52.308;20.994;2022-08-16T12:46:19;28.60;99.90
17483;DHT22;8858;52.308;20.994;2022-08-16T12:48:47;28.60;99.90
17483;DHT22;8858;52.308;20.994;2022-08-16T12:51:28;28.50;99.90
17483;DHT22;8858;52.308;20.994;2022-08-16T12:54:18;28.60;99.90
17483;DHT22;8858;52.308;20.994;2022-08-16T12:56:48;28.60;99.90
17483;DHT22;8858;52.308;20.994;2022-08-16T12:59:17;28.40;99.90
17483;DHT22;8858;52.308;20.994;2022-08-16T13:01:48;28.40;99.90
17483;DHT22;8858;52.308;20.994;2022-08-16T13:04:25;28.40;99.90
17483;DHT22;8858;52.308;20.994;2022-08-16T13:06:59;28.30;99.90
17483;DHT22;8858;52.308;20.994;2022-08-16T13:09:29;28.20;99.90
17483;DHT22;8858;52.308;20.994;2022-08-16T13:12:10;28.20;99.90
17483;DHT22;8858;52.308;20.994;2022-08-16T13:14:50;28.20;99.90
17483;DHT22;8858;52.308;20.994;2022-08-16T13:17:22;28.30;99.90
17483;DHT22;8858;52.308;20.994;2022-08-16T13:19:57;28.30;99.90
17483;DHT22;8858;52.308;20.994;2022-08-16T13:22:36;28.40;99.90
17483;DHT22;8858;52.308;20.994;2022-08-16T13:25:13;28.50;99.90
17483;DHT22;8858;52.308;20.994;2022-08-16T13:27:47;28.70;99.90
17483;DHT22;8858;52.308;20.994;2022-08-16T13:30:32;29.00;99.90
17483;DHT22;8858;52.308;20.994;2022-08-16T13:33:11;29.40;99.90
17483;DHT22;8858;52.308;20.994;2022-08-16T13:35:46;29.80;99.90
17483;DHT22;8858;52.308;20.994;2022-08-16T13:38:25;30.40;99.90
17483;DHT22;8858;52.308;20.994;2022-08-16T13:40:58;31.20;99.90
17483;DHT22;8858;52.308;20.994;2022-08-16T13:43:30;32.10;99.90
17483;DHT22;8858;52.308;20.994;2022-08-16T13:45:59;33.00;99.90
17483;DHT22;8858;52.308;20.994;2022-08-16T13:48:36;33.70;99.90
17483;DHT22;8858;52.308;20.994;2022-08-16T13:51:12;34.70;99.90
17483;DHT22;8858;52.308;20.994;2022-08-16T13:53:44;35.70;99.90
17483;DHT22;8858;52.308;20.994;2022-08-16T13:56:21;36.30;99.90
17483;DHT22;8858;52.308;20.994;2022-08-16T13:58:52;36.90;99.90
17483;DHT22;8858;52.308;20.994;2022-08-16T14:01:22;37.40;99.90
17483;DHT22;8858;52.308;20.994;2022-08-16T14:03:54;37.90;99.90
17483;DHT22;8858;52.308;20.994;2022-08-16T14:06:24;38.20;99.90
17483;DHT22;8858;52.308;20.994;2022-08-16T14:08:54;38.60;99.90
17483;DHT22;8858;52.308;20.994;2022-08-16T14:11:33;38.70;99.90
17483;DHT22;8858;52.308;20.994;2022-08-16T14:14:03;38.90;99.90
17483;DHT22;8858;52.308;20.994;2022-08-16T14:16:32;38.90;99.90
17483;DHT22;8858;52.308;20.994;2022-08-16T14:19:02;39.00;99.90
17483;DHT22;8858;52.308;20.994;2022-08-16T14:21:37;39.00;99.90
17483;DHT22;8858;52.308;20.994;2022-08-16T14:24:24;39.30;99.90
17483;DHT22;8858;52.308;20.994;2022-08-16T14:26:56;39.30;99.90
17483;DHT22;8858;52.308;20.994;2022-08-16T14:29:25;39.30;99.90
17483;DHT22;8858;52.308;20.994;2022-08-16T14:31:58;39.20;99.90
17483;DHT22;8858;52.308;20.994;2022-08-16T14:34:28;39.10;99.90
17483;DHT22;8858;52.308;20.994;2022-08-16T14:36:59;39.00;99.90
17483;DHT22;8858;52.308;20.994;2022-08-16T14:39:31;39.10;99.90
17483;DHT22;8858;52.308;20.994;2022-08-16T14:42:08;39.20;99.90
17483;DHT22;8858;52.308;20.994;2022-08-16T14:44:39;39.00;99.90
17483;DHT22;8858;52.308;20.994;2022-08-16T14:47:13;38.60;99.90
17483;DHT22;8858;52.308;20.994;2022-08-16T14:49:43;38.40;99.90
17483;DHT22;8858;52.308;20.994;2022-08-16T14:52:15;38.50;99.90
17483;DHT22;8858;52.308;20.994;2022-08-16T14:55:04;38.70;99.90
17483;DHT22;8858;52.308;20.994;2022-08-16T14:57:34;38.60;99.90
17483;DHT22;8858;52.308;20.994;2022-08-16T15:00:07;38.50;99.90
17483;DHT22;8858;52.308;20.994;2022-08-16T15:03:05;38.40;99.90
17483;DHT22;8858;52.308;20.994;2022-08-16T15:06:07;38.30;99.90
17483;DHT22;8858;52.308;20.994;2022-08-16T15:08:40;38.30;99.90
17483;DHT22;8858;52.308;20.994;2022-08-16T15:11:12;38.40;99.90
17483;DHT22;8858;52.308;20.994;2022-08-16T15:13:40;38.30;99.90
17483;DHT22;8858;52.308;20.994;2022-08-16T15:16:09;38.10;99.90
17483;DHT22;8858;52.308;20.994;2022-08-16T15:19:02;38.00;99.90
17483;DHT22;8858;52.308;20.994;2022-08-16T15:21:32;37.90;99.90
17483;DHT22;8858;52.308;20.994;2022-08-16T15:24:00;37.80;99.90
17483;DHT22;8858;52.308;20.994;2022-08-16T15:26:31;37.50;99.90
17483;DHT22;8858;52.308;20.994;2022-08-16T15:29:12;37.30;99.90
17483;DHT22;8858;52.308;20.994;2022-08-16T15:31:41;37.10;99.90
17483;DHT22;8858;52.308;20.994;2022-08-16T15:34:14;36.90;99.90
17483;DHT22;8858;52.308;20.994;2022-08-16T15:36:53;36.60;99.90
17483;DHT22;8858;52.308;20.994;2022-08-16T15:39:21;36.30;99.90
17483;DHT22;8858;52.308;20.994;2022-08-16T15:42:04;36.20;99.90
17483;DHT22;8858;52.308;20.994;2022-08-16T15:44:38;35.90;99.90
17483;DHT22;8858;52.308;20.994;2022-08-16T15:47:22;35.80;99.90
17483;DHT22;8858;52.308;20.994;2022-08-16T15:49:53;35.70;99.90
17483;DHT22;8858;52.308;20.994;2022-08-16T15:52:28;35.70;99.90
17483;DHT22;8858;52.308;20.994;2022-08-16T15:55:01;35.40;99.90
17483;DHT22;8858;52.308;20.994;2022-08-16T15:57:49;34.90;99.90
17483;DHT22;8858;52.308;20.994;2022-08-16T16:00:19;34.70;99.90
17483;DHT22;8858;52.308;20.994;2022-08-16T16:03:00;34.60;99.90
17483;DHT22;8858;52.308;20.994;2022-08-16T16:05:28;34.40;99.90
17483;DHT22;8858;52.308;20.994;2022-08-16T16:08:00;34.30;99.90
17483;DHT22;8858;52.308;20.994;2022-08-16T16:10:39;34.20;99.90
17483;DHT22;8858;52.308;20.994;2022-08-16T16:13:08;34.10;99.90
17483;DHT22;8858;52.308;20.994;2022-08-16T16:15:39;33.90;99.90
17483;DHT22;8858;52.308;20.994;2022-08-16T16:18:13;33.70;99.90
17483;DHT22;8858;52.308;20.994;2022-08-16T16:20:45;33.60;99.90
17483;DHT22;8858;52.308;20.994;2022-08-16T16:23:24;33.40;99.90
17483;DHT22;8858;52.308;20.994;2022-08-16T16:25:55;33.20;99.90
17483;DHT22;8858;52.308;20.994;2022-08-16T16:28:32;33.10;99.90
17483;DHT22;8858;52.308;20.994;2022-08-16T16:31:22;32.90;99.90
17483;DHT22;8858;52.308;20.994;2022-08-16T16:33:53;32.80;99.90
17483;DHT22;8858;52.308;20.994;2022-08-16T16:36:27;32.70;99.90
17483;DHT22;8858;52.308;20.994;2022-08-16T16:39:02;32.50;99.90
17483;DHT22;8858;52.308;20.994;2022-08-16T16:41:33;32.40;99.90
17483;DHT22;8858;52.308;20.994;2022-08-16T16:44:02;32.20;99.90
17483;DHT22;8858;52.308;20.994;2022-08-16T16:46:33;32.10;99.90
17483;DHT22;8858;52.308;20.994;2022-08-16T16:49:11;32.00;99.90
17483;DHT22;8858;52.308;20.994;2022-08-16T16:51:41;31.80;99.90
17483;DHT22;8858;52.308;20.994;2022-08-16T16:54:17;31.50;99.90